Time;durP1;ratioP1;P1;durP2;ratioP2;P2;SDS_P1;SDS_P2;PMS_P1;PMS_P2;Temp;Humidity;BMP_temperature;BMP_pressure;BME280_temperature;BME280_humidity;BME280_pressure;Samples;Min_cycle;Max_cycle;Signal;HPM_P1;HPM_P2
2021/07/09 06:59:33;;;;;;;23.80;11.77;;;;;;;27.55;55.15;98951.09;2134555;83;21550;-69
2021/07/09 07:02:33;;;;;;;25.23;10.93;;;;;;;27.63;55.26;98931.25;2117561;83;21135;-69
2021/07/09 07:05:34;;;;;;;25.82;11.63;;;;;;;27.57;56.42;98949.05;2152691;83;21614;-69
2021/07/09 07:08:35;;;;;;;24.83;11.70;;;;;;;27.89;55.59;98952.05;2153097;83;21036;-68
2021/07/09 07:11:35;;;;;;;22.87;11.83;;;;;;;28.21;56.23;98945.62;2153356;83;21065;-69
2021/07/09 07:14:36;;;;;;;25.77;12.13;;;;;;;28.21;57.54;98942.10;2153344;83;20997;-69
2021/07/09 07:17:37;;;;;;;24.13;12.77;;;;;;;28.30;57.53;98954.34;2117763;83;21048;-68
2021/07/09 07:20:41;;;;;;;25.27;12.98;;;;;;;28.30;57.61;98961.08;2116104;84;21685;-69
2021/07/09 07:23:41;;;;;;;24.70;13.30;;;;;;;27.78;59.09;98966.93;2091075;84;21025;-69
2021/07/09 07:26:41;;;;;;;24.63;12.88;;;;;;;27.72;58.49;98950.77;2116668;84;21128;-68
2021/07/09 07:29:42;;;;;;;25.67;12.77;;;;;;;27.56;58.87;98904.81;2117007;84;21095;-68
2021/07/09 07:32:46;;;;;;;24.37;12.17;;;;;;;27.94;59.07;98940.66;2116964;84;21136;-69
2021/07/09 07:35:44;;;;;;;25.75;12.78;;;;;;;27.98;57.75;98941.42;2093628;83;20989;-68
2021/07/09 07:38:46;;;;;;;22.87;12.35;;;;;;;27.84;58.29;98910.05;2135076;81;21020;-67
2021/07/09 07:41:46;;;;;;;24.83;13.40;;;;;;;28.20;58.22;98936.39;2153364;83;21507;-68
2021/07/09 07:44:47;;;;;;;23.57;12.67;;;;;;;28.32;58.55;98934.75;2118364;83;21005;-67
2021/07/09 07:50:50;;;;;;;23.85;12.20;;;;;;;28.93;56.95;98911.29;2090835;84;21020;-67
2021/07/09 07:53:52;;;;;;;24.02;11.80;;;;;;;29.00;56.81;98899.42;2116764;84;21021;-67
2021/07/09 07:56:53;;;;;;;23.95;13.15;;;;;;;29.09;55.28;98905.42;2143778;83;21004;-67
2021/07/09 07:59:53;;;;;;;23.17;12.67;;;;;;;29.09;55.54;98905.42;2108622;84;21549;-68
2021/07/09 08:02:54;;;;;;;24.30;12.23;;;;;;;29.13;55.59;98893.69;2108050;84;21043;-67
2021/07/09 08:05:54;;;;;;;23.27;12.73;;;;;;;29.34;54.86;98881.81;2108436;84;21046;-67
2021/07/09 08:08:55;;;;;;;22.97;12.33;;;;;;;29.44;55.00;98874.58;2108473;84;21079;-68
2021/07/09 08:11:55;;;;;;;24.43;12.50;;;;;;;29.61;53.96;98873.06;2108575;84;21043;-67
2021/07/09 08:14:56;;;;;;;24.57;11.73;;;;;;;29.85;54.37;98873.34;2108453;84;21063;-67
2021/07/09 08:17:56;;;;;;;24.30;11.73;;;;;;;29.85;53.36;98876.05;2108441;84;21566;-67
2021/07/09 08:20:56;;;;;;;22.43;11.97;;;;;;;29.93;53.67;98877.15;2108483;84;21011;-67
2021/07/09 08:23:57;;;;;;;22.83;12.13;;;;;;;30.23;52.22;98873.81;2108275;84;21023;-68
2021/07/09 08:26:57;;;;;;;26.17;12.10;;;;;;;30.26;52.92;98863.91;2108551;82;21015;-67
2021/07/09 08:29:58;;;;;;;22.62;11.38;;;;;;;30.45;53.08;98866.69;2108610;84;21055;-67
2021/07/09 08:32:58;;;;;;;22.97;10.97;;;;;;;30.89;51.73;98865.62;2108800;84;21057;-67
2021/07/09 08:35:59;;;;;;;23.57;11.80;;;;;;;30.82;52.02;98866.75;2108665;84;21035;-67
2021/07/09 08:38:59;;;;;;;22.40;11.07;;;;;;;31.09;50.75;98871.38;2114184;83;21439;-67
2021/07/09 08:42:00;;;;;;;22.98;11.28;;;;;;;31.01;50.70;98868.42;2104484;85;21554;-68
2021/07/09 08:45:00;;;;;;;22.60;11.57;;;;;;;31.26;50.74;98870.21;2104777;85;21057;-67
2021/07/09 08:48:01;;;;;;;22.23;11.97;;;;;;;31.37;50.42;98866.73;2108625;83;20996;-68
2021/07/09 08:51:01;;;;;;;23.65;11.93;;;;;;;31.61;50.45;98872.31;2110873;83;21376;-68
2021/07/09 08:54:02;;;;;;;23.23;12.00;;;;;;;31.96;50.90;98875.65;2107069;84;21015;-68
2021/07/09 08:57:02;;;;;;;22.87;12.17;;;;;;;31.96;48.17;98856.13;2108486;83;21486;-68
2021/07/09 09:00:06;;;;;;;;;;;;;;;32.31;49.49;98865.41;2110377;84;21031;-68
2021/07/09 09:03:06;;;;;;;24.40;12.28;;;;;;;32.62;47.45;98864.23;2086860;84;20158;-67
2021/07/09 09:06:06;;;;;;;23.18;12.00;;;;;;;32.79;48.36;98866.28;2107106;84;21066;-68
2021/07/09 09:09:07;;;;;;;25.48;12.00;;;;;;;33.17;48.06;98863.53;2097269;84;21055;-67
2021/07/09 09:12:08;;;;;;;23.83;11.95;;;;;;;33.50;46.54;98874.27;2101103;84;20980;-68
2021/07/09 09:15:09;;;;;;;25.37;11.73;;;;;;;33.29;46.41;98872.52;2092269;84;21058;-68
2021/07/09 09:18:10;;;;;;;24.25;12.30;;;;;;;33.21;47.24;98874.22;2036361;87;21522;-67
2021/07/09 09:21:10;;;;;;;25.02;12.25;;;;;;;33.06;46.17;98860.31;2073558;86;21071;-68
2021/07/09 09:24:11;;;;;;;24.90;12.33;;;;;;;32.83;45.66;98864.75;2035864;87;21068;-67
2021/07/09 09:27:11;;;;;;;26.95;12.07;;;;;;;32.79;46.05;98869.81;2087862;84;21506;-67
2021/07/09 09:30:11;;;;;;;24.75;11.35;;;;;;;32.92;46.12;98861.12;2108383;84;21569;-67
2021/07/09 09:33:12;;;;;;;;;;;;;;;33.21;46.53;98855.74;2110742;84;21028;-68
2021/07/09 09:36:12;;;;;;;25.48;11.78;;;;;;;33.79;46.27;98836.22;2108344;84;20177;-69
2021/07/09 09:39:13;;;;;;;;;;;;;;;34.02;44.15;98835.23;2110724;84;20995;-68
2021/07/09 09:45:15;;;;;;;25.02;11.93;;;;;;;33.91;44.74;98840.25;2086654;84;21012;-68
2021/07/09 09:48:16;;;;;;;;;;;;;;;34.38;44.47;98837.22;2110037;84;21045;-68
2021/07/09 09:51:16;;;;;;;26.60;11.70;;;;;;;34.79;43.97;98840.53;2106451;85;20430;-68
2021/07/09 09:54:18;;;;;;;23.10;10.85;;;;;;;35.18;43.68;98832.28;2106472;85;21024;-66
2021/07/09 09:57:18;;;;;;;24.23;12.25;;;;;;;35.13;41.06;98831.41;2106694;84;20996;-67
2021/07/09 10:00:19;;;;;;;23.18;11.38;;;;;;;35.28;42.76;98830.22;2111107;84;21007;-68
2021/07/09 10:03:20;;;;;;;24.47;10.82;;;;;;;35.66;41.42;98826.27;2095693;84;21522;-68
2021/07/09 10:06:20;;;;;;;24.32;10.85;;;;;;;36.01;41.75;98813.52;2110626;84;21046;-67
2021/07/09 10:09:21;;;;;;;24.07;11.10;;;;;;;36.37;40.80;98812.98;2111025;84;21003;-67
2021/07/09 10:12:21;;;;;;;22.48;11.83;;;;;;;36.34;40.35;98810.23;2111184;84;21003;-67
2021/07/09 10:15:22;;;;;;;24.65;10.72;;;;;;;36.34;40.57;98816.25;2111010;84;20983;-67
2021/07/09 10:18:22;;;;;;;22.58;11.80;;;;;;;36.37;40.29;98810.26;2111113;84;20991;-67
2021/07/09 10:21:22;;;;;;;23.77;11.20;;;;;;;36.44;37.54;98813.58;2110966;84;21054;-67
2021/07/09 10:24:23;;;;;;;23.98;11.50;;;;;;;36.41;37.46;98805.92;2110968;84;20993;-67
2021/07/09 10:27:23;;;;;;;22.37;11.53;;;;;;;36.35;39.42;98807.79;2111018;84;21488;-67
2021/07/09 10:30:24;;;;;;;27.27;11.93;;;;;;;36.66;39.34;98801.67;2111039;84;20955;-67
2021/07/09 10:33:24;;;;;;;22.95;10.78;;;;;;;36.34;38.21;98795.77;2110807;84;21040;-67
2021/07/09 10:36:25;;;;;;;25.10;10.68;;;;;;;36.19;38.40;98789.10;2110989;84;20964;-67
2021/07/09 10:39:26;;;;;;;47.00;12.15;;;;;;;36.11;38.14;98777.30;2110628;84;21004;-67
2021/07/09 10:42:27;;;;;;;22.93;11.25;;;;;;;36.00;38.67;98771.48;2110822;84;21034;-68
2021/07/09 10:45:29;;;;;;;23.87;9.85;;;;;;;36.34;38.78;98777.47;2110889;84;21014;-67
2021/07/09 10:48:29;;;;;;;22.07;10.40;;;;;;;36.67;37.72;98784.20;2110812;84;20999;-68
2021/07/09 10:51:30;;;;;;;21.70;11.05;;;;;;;37.16;37.65;98778.95;2092453;84;20956;-68
2021/07/09 10:54:30;;;;;;;20.50;10.03;;;;;;;37.53;35.58;98776.02;2076097;86;21537;-68
2021/07/09 10:57:30;;;;;;;24.63;9.88;;;;;;;37.62;36.51;98774.94;2076013;84;20979;-67
2021/07/09 11:00:31;;;;;;;22.27;9.85;;;;;;;37.96;36.47;98777.97;2075809;86;21039;-67
2021/07/09 11:03:31;;;;;;;22.07;9.55;;;;;;;38.41;36.79;98775.44;2088371;84;21056;-67
2021/07/09 11:06:32;;;;;;;23.40;9.55;;;;;;;38.80;35.30;98774.77;2110844;84;21330;-67
2021/07/09 11:09:32;;;;;;;20.40;8.88;;;;;;;39.10;33.10;98774.91;2111042;84;21022;-67
2021/07/09 11:15:43;;;;;;;19.95;9.00;;;;;;;38.32;33.87;98762.06;2206045;80;21068;-66
2021/07/09 11:18:43;;;;;;;20.82;8.65;;;;;;;38.42;34.52;98759.28;2227499;80;21505;-65
2021/07/09 11:21:43;;;;;;;24.98;9.63;;;;;;;38.79;34.31;98758.09;2227363;80;20980;-67
2021/07/09 11:24:49;;;;;;;20.97;8.90;;;;;;;39.09;33.05;98756.81;2227374;80;20992;-65
2021/07/09 11:27:46;;;;;;;18.70;8.23;;;;;;;39.38;32.83;98752.83;2197261;80;21019;-66
2021/07/09 11:30:47;;;;;;;18.75;8.30;;;;;;;39.65;32.75;98753.75;2227258;80;21005;-65
2021/07/09 11:33:47;;;;;;;21.52;9.00;;;;;;;39.15;32.13;98748.31;2227573;80;20964;-68
2021/07/09 11:36:48;;;;;;;19.35;8.73;;;;;;;38.34;32.32;98753.56;2227712;80;21000;-71
2021/07/09 11:39:48;;;;;;;18.67;8.00;;;;;;;37.52;34.24;98756.59;2227845;80;20964;-65
2021/07/09 11:42:49;;;;;;;19.40;8.78;;;;;;;36.97;34.57;98759.47;2227745;80;21031;-70
2021/07/09 11:45:49;;;;;;;23.55;8.85;;;;;;;36.43;34.38;98748.31;2227836;80;20964;-65
